Honor — WDC6923 — position and weather

sailwx.info

Track history (hours):
 
Tides and Currents Weather Stations Pressure Air Temp Water Temp Dewpoint Dewpoint Depression Visibility Wind Speed Wind Dir Waves Ship Positions

Honor

Owner: TOTE Services, Inc., Jacksonville, FL. More information available from US FCC via Universal Licensing System and Coast Guard Vessel Documentation Center.

Last reported at 2017-Sep-19 01:38 UTC. Time now 2017-Sep-21 07:14 UTC.
Position N 25°14' W 080°06'.

Type: Cargo ship. MMSI: 367063280.

Date/timePositionNaut miles runAvg speedWind from/ knotsBaromVisibWave heightAir tempDewpointWater temp
2017-Sep-19 01:38N 25°14' W 080°06'311.7
2017-Sep-19 01:22N 25°17' W 080°04'513.0
2017-Sep-19 01:00N 25°21' W 080°02'713.6
2017-Sep-19 00:30N 25°28' W 080°01'613.2
2017-Sep-19 00:00N 25°34' W 080°01'612.8
2017-Sep-18 23:30N 25°41' W 080°00'612.6
2017-Sep-18 23:00N 25°47' W 079°60'612.2
2017-Sep-18 22:30N 25°53' W 079°59'612.2
2017-Sep-18 22:00N 25°59' W 079°59'814.5
2017-Sep-18 21:29N 26°07' W 079°58'4112.3
2017-Sep-18 18:09N 26°48' W 079°55'210.9
2017-Sep-18 18:00N 26°49' W 079°55'5 9.9
2017-Sep-18 17:30N 26°54' W 079°56'510.4
2017-Sep-18 17:00N 26°59' W 079°57'510.2
2017-Sep-18 16:30N 27°04' W 079°57'257 9.1
2017-Sep-17 12:15N 31°08' W 081°32'0 0.1
2017-Sep-17 11:59N 31°08' W 081°32'8 6.2
2017-Sep-17 10:38N 31°07' W 081°23'215.0
2017-Sep-17 10:30N 31°06' W 081°21'811.7
2017-Sep-17 09:50N 31°02' W 081°13'31 7.1
2017-Sep-17 05:25N 31°13' W 080°39'1212.3
2017-Sep-17 04:26N 31°24' W 080°33'512.3
2017-Sep-17 04:00N 31°28' W 080°30'612.3
2017-Sep-17 03:30N 31°33' W 080°26'612.2
2017-Sep-17 03:00N 31°38' W 080°21'612.0
2017-Sep-17 02:30N 31°43' W 080°17'612.1
2017-Sep-17 02:00N 31°48' W 080°13'611.9
2017-Sep-17 01:29N 31°53' W 080°08'611.8
2017-Sep-17 01:00N 31°57' W 080°04'611.8
2017-Sep-17 00:29N 32°02' W 079°60'1211.7
2017-Sep-16 23:27N 32°11' W 079°51'511.2
2017-Sep-16 22:59N 32°16' W 079°47'3 6.0
2017-Sep-16 22:29N 32°18' W 079°45'38 2.9
2017-Sep-16 09:29N 32°54' W 079°57'3 4.9
2017-Sep-16 08:55N 32°52' W 079°57'3 6.3
2017-Sep-16 08:31N 32°50' W 079°56'2 0.1
2017-Sep-15 10:16N 32°47' W 079°55'1 5.0
2017-Sep-15 10:00N 32°47' W 079°54'612.7
2017-Sep-15 09:31N 32°43' W 079°48'814.1
2017-Sep-15 08:56N 32°40' W 079°39'4 8.5
2017-Sep-15 08:30N 32°39' W 079°35'4 8.1
2017-Sep-15 08:00N 32°39' W 079°30'612.0
2017-Sep-15 07:30N 32°41' W 079°23'712.7
2017-Sep-15 06:59N 32°44' W 079°16'612.8
2017-Sep-15 06:30N 32°47' W 079°10'612.8
2017-Sep-15 06:00N 32°49' W 079°03'712.9
2017-Sep-15 05:28N 32°52' W 078°55'812.9
2017-Sep-15 04:48N 32°56' W 078°46'413.0
2017-Sep-15 04:30N 32°58' W 078°42'713.0
2017-Sep-15 04:00N 33°01' W 078°35'613.0
2017-Sep-15 03:30N 33°03' W 078°28'15312.6
2017-Sep-14 15:19N 34°33' W 075°59'1012.4
2017-Sep-14 14:29N 34°40' W 075°49'3213.2
2017-Sep-14 12:05N 35°01' W 075°20'215.7
2017-Sep-14 11:58N 35°03' W 075°19'715.1
2017-Sep-14 11:30N 35°07' W 075°12'912.7
2017-Sep-14 10:48N 35°16' W 075°10'412.6
2017-Sep-14 10:29N 35°20' W 075°10'612.7
2017-Sep-14 09:59N 35°26' W 075°10'2813.5
2017-Sep-14 07:56N 35°54' W 075°10'613.4
2017-Sep-14 07:30N 35°59' W 075°13'4113.1
2017-Sep-14 04:24N 36°35' W 075°37'512.9
2017-Sep-14 04:00N 36°39' W 075°40'612.8
2017-Sep-14 03:30N 36°45' W 075°44'912.8
2017-Sep-14 02:49N 36°51' W 075°51'413.5
2017-Sep-14 02:30N 36°54' W 075°55'612.2
2017-Sep-14 02:00N 36°59' W 076°00'1116.8
2017-Sep-14 01:20N 37°08' W 076°08'1615.7
2017-Sep-14 00:18N 37°24' W 076°05'814.9
2017-Sep-13 23:45N 37°32' W 076°02'414.8
2017-Sep-13 23:31N 37°35' W 076°04'815.6
2017-Sep-13 22:58N 37°42' W 076°11'915.3
2017-Sep-13 22:24N 37°51' W 076°10'614.9
2017-Sep-13 21:59N 37°57' W 076°12'815.9
2017-Sep-13 21:28N 38°05' W 076°13'715.5
2017-Sep-13 21:00N 38°12' W 076°15'1216.0
2017-Sep-13 20:14N 38°23' W 076°21'516.3
2017-Sep-13 19:55N 38°28' W 076°23'716.0
2017-Sep-13 19:29N 38°35' W 076°26'816.0
2017-Sep-13 19:00N 38°42' W 076°26'816.2
2017-Sep-13 18:31N 38°50' W 076°24'815.9
2017-Sep-13 18:01N 38°58' W 076°23'713.7
2017-Sep-13 17:30N 39°05' W 076°24'612.0
2017-Sep-13 17:00N 39°11' W 076°26'510.1
2017-Sep-13 16:30N 39°13' W 076°32'3 5.5
2017-Sep-13 16:00N 39°15' W 076°35'0 0.0
2017-Sep-13 15:30N 39°15' W 076°35'0 0.0
2017-Sep-13 15:00N 39°15' W 076°35'0 0.0
2017-Sep-13 14:30N 39°15' W 076°35'0 0.0
2017-Sep-13 14:00N 39°15' W 076°35'0 0.0
2017-Sep-13 13:30N 39°15' W 076°35'0 0.0
2017-Sep-13 13:00N 39°15' W 076°35'0 0.0
2017-Sep-13 12:31N 39°15' W 076°35'0 0.0
2017-Sep-13 12:00N 39°15' W 076°35'0 0.0
2017-Sep-13 11:31N 39°15' W 076°35'0 0.0
2017-Sep-13 11:01N 39°15' W 076°35'0 0.0
2017-Sep-13 10:30N 39°15' W 076°35'0 0.0
2017-Sep-13 10:00N 39°15' W 076°35'0 0.0
2017-Sep-13 09:30N 39°15' W 076°35'0 0.0
2017-Sep-13 09:00N 39°15' W 076°35'0 0.0
2017-Sep-13 08:31N 39°15' W 076°35'0 0.0
2017-Sep-13 08:00N 39°15' W 076°35'0 0.0
2017-Sep-13 07:31N 39°15' W 076°35'0 0.0
2017-Sep-13 07:00N 39°15' W 076°35'0 0.0
2017-Sep-13 06:30N 39°15' W 076°35'0 0.0
2017-Sep-13 06:01N 39°15' W 076°35'0 0.0
2017-Sep-13 05:30N 39°15' W 076°35'0 0.0
2017-Sep-13 05:00N 39°15' W 076°35'0 0.0
2017-Sep-13 04:31N 39°15' W 076°35'0 0.0
2017-Sep-13 04:00N 39°15' W 076°35'0 0.0
2017-Sep-13 03:30N 39°15' W 076°35'0 0.0
2017-Sep-13 03:00N 39°15' W 076°35'0 0.0
2017-Sep-13 02:30N 39°15' W 076°35'0 0.0
2017-Sep-13 02:00N 39°15' W 076°35'0 0.0
2017-Sep-13 01:31N 39°15' W 076°35'0 0.0
2017-Sep-13 01:01N 39°15' W 076°35'0 0.0
2017-Sep-13 00:30N 39°15' W 076°35'0 0.0
2017-Sep-13 00:00N 39°15' W 076°35'0 0.0
2017-Sep-12 23:30N 39°15' W 076°35'0 0.9
2017-Sep-12 23:00N 39°15' W 076°34'2 3.4
2017-Sep-12 22:30N 39°15' W 076°32'0 0.0
2017-Sep-12 22:00N 39°15' W 076°32'0 0.0
2017-Sep-12 21:28N 39°15' W 076°32'0 0.0
2017-Sep-12 20:58N 39°15' W 076°32'0 0.0
2017-Sep-12 20:30N 39°15' W 076°32'0 0.0
2017-Sep-12 20:00N 39°15' W 076°32'0 0.0
2017-Sep-12 19:30N 39°15' W 076°32'0 0.0
2017-Sep-12 18:59N 39°15' W 076°32'0 0.0
2017-Sep-12 18:29N 39°15' W 076°32'0 0.0
2017-Sep-12 17:59N 39°15' W 076°32'0 0.0
2017-Sep-12 17:29N 39°15' W 076°32'0 0.0
2017-Sep-12 16:58N 39°15' W 076°32'0 0.0
2017-Sep-12 16:28N 39°15' W 076°32'0 0.0
2017-Sep-12 15:58N 39°15' W 076°32'0 0.0
2017-Sep-12 15:30N 39°15' W 076°32'0 0.0
2017-Sep-12 15:00N 39°15' W 076°32'0 0.0
2017-Sep-12 14:30N 39°15' W 076°32'0 0.0
2017-Sep-12 13:59N 39°15' W 076°32'0 0.0
2017-Sep-12 13:29N 39°15' W 076°32'0 0.0
2017-Sep-12 12:58N 39°15' W 076°32'0 0.0
2017-Sep-12 12:28N 39°15' W 076°32'0 0.0
2017-Sep-12 11:58N 39°15' W 076°32'0 0.0
2017-Sep-12 11:30N 39°15' W 076°32'0 0.0
2017-Sep-12 11:00N 39°15' W 076°32'0 0.0
2017-Sep-12 10:30N 39°15' W 076°32'0 0.0
2017-Sep-12 10:00N 39°15' W 076°32'0 0.0
2017-Sep-12 09:29N 39°15' W 076°32'0 0.0
2017-Sep-12 09:00N 39°15' W 076°32'0 0.0
2017-Sep-12 08:30N 39°15' W 076°32'0 0.0
2017-Sep-12 08:00N 39°15' W 076°32'0 0.0
2017-Sep-12 07:31N 39°15' W 076°32'0 0.0
2017-Sep-12 07:00N 39°15' W 076°32'0 0.0
2017-Sep-12 06:30N 39°15' W 076°32'0 0.0
2017-Sep-12 06:00N 39°15' W 076°32'0 0.0
2017-Sep-12 05:30N 39°15' W 076°32'0 0.0
2017-Sep-12 05:00N 39°15' W 076°32'0 0.0
2017-Sep-12 04:30N 39°15' W 076°32'0 0.0
2017-Sep-12 04:00N 39°15' W 076°32'0 0.0
2017-Sep-12 03:30N 39°15' W 076°32'0 0.0
2017-Sep-12 03:00N 39°15' W 076°32'0 0.0
2017-Sep-12 02:30N 39°15' W 076°32'0 0.0
2017-Sep-12 02:00N 39°15' W 076°32'0 0.0
2017-Sep-12 01:30N 39°15' W 076°32'0 0.0
2017-Sep-12 01:00N 39°15' W 076°32'0 0.0
2017-Sep-12 00:30N 39°15' W 076°32'0 0.0
2017-Sep-12 00:00N 39°15' W 076°32'0 0.0
2017-Sep-11 23:30N 39°15' W 076°32'0 0.0
2017-Sep-11 23:00N 39°15' W 076°32'0 0.0
2017-Sep-11 22:30N 39°15' W 076°32'0 0.0
2017-Sep-11 22:00N 39°15' W 076°32'0 0.3
2017-Sep-11 21:30N 39°14' W 076°32'2 4.6
2017-Sep-11 21:00N 39°12' W 076°31'611.6
2017-Sep-11 20:30N 39°09' W 076°25'714.1
2017-Sep-11 20:01N 39°02' W 076°23'714.1
2017-Sep-11 19:30N 38°55' W 076°23'815.8
2017-Sep-11 19:00N 38°47' W 076°25'3515.5
2017-Sep-11 16:44N 38°13' W 076°15'516.2
2017-Sep-11 16:26N 38°08' W 076°14'916.3
2017-Sep-11 15:53N 37°59' W 076°12'616.0
2017-Sep-11 15:30N 37°54' W 076°09'815.6
2017-Sep-11 15:00N 37°46' W 076°11'914.9
2017-Sep-11 14:21N 37°37' W 076°06'814.3
2017-Sep-11 13:47N 37°29' W 076°03'2314.0
2017-Sep-11 12:09N 37°07' W 076°08'315.1
2017-Sep-11 11:58N 37°04' W 076°06'714.2
2017-Sep-11 11:30N 36°59' W 076°01'612.1
2017-Sep-11 11:00N 36°55' W 075°55'510.3
2017-Sep-11 10:30N 36°52' W 075°50'  
Track history (hours):
 
Tides and Currents Weather Stations Pressure Air Temp Water Temp Dewpoint Dewpoint Depression Visibility Wind Speed Wind Dir Waves Ship Positions

Honor

Owner: TOTE Services, Inc., Jacksonville, FL. More information available from US FCC via Universal Licensing System and Coast Guard Vessel Documentation Center.

Last reported at 2017-Sep-19 01:38 UTC. Time now 2017-Sep-21 07:14 UTC.
Position N 25°14' W 080°06'.

Type: Cargo ship. MMSI: 367063280.

Date/timePositionNaut miles runAvg speedWind from/ knotsBaromVisibWave heightAir tempDewpointWater temp
2017-Sep-19 01:38N 25°14' W 080°06'311.7
2017-Sep-19 01:22N 25°17' W 080°04'513.0
2017-Sep-19 01:00N 25°21' W 080°02'713.6
2017-Sep-19 00:30N 25°28' W 080°01'613.2
2017-Sep-19 00:00N 25°34' W 080°01'612.8
2017-Sep-18 23:30N 25°41' W 080°00'612.6
2017-Sep-18 23:00N 25°47' W 079°60'612.2
2017-Sep-18 22:30N 25°53' W 079°59'612.2
2017-Sep-18 22:00N 25°59' W 079°59'814.5
2017-Sep-18 21:29N 26°07' W 079°58'4112.3
2017-Sep-18 18:09N 26°48' W 079°55'210.9
2017-Sep-18 18:00N 26°49' W 079°55'5 9.9
2017-Sep-18 17:30N 26°54' W 079°56'510.4
2017-Sep-18 17:00N 26°59' W 079°57'510.2
2017-Sep-18 16:30N 27°04' W 079°57'257 9.1
2017-Sep-17 12:15N 31°08' W 081°32'0 0.1
2017-Sep-17 11:59N 31°08' W 081°32'8 6.2
2017-Sep-17 10:38N 31°07' W 081°23'215.0
2017-Sep-17 10:30N 31°06' W 081°21'811.7
2017-Sep-17 09:50N 31°02' W 081°13'31 7.1
2017-Sep-17 05:25N 31°13' W 080°39'1212.3
2017-Sep-17 04:26N 31°24' W 080°33'512.3
2017-Sep-17 04:00N 31°28' W 080°30'612.3
2017-Sep-17 03:30N 31°33' W 080°26'612.2
2017-Sep-17 03:00N 31°38' W 080°21'612.0
2017-Sep-17 02:30N 31°43' W 080°17'612.1
2017-Sep-17 02:00N 31°48' W 080°13'611.9
2017-Sep-17 01:29N 31°53' W 080°08'611.8
2017-Sep-17 01:00N 31°57' W 080°04'611.8
2017-Sep-17 00:29N 32°02' W 079°60'1211.7
2017-Sep-16 23:27N 32°11' W 079°51'511.2
2017-Sep-16 22:59N 32°16' W 079°47'3 6.0
2017-Sep-16 22:29N 32°18' W 079°45'38 2.9
2017-Sep-16 09:29N 32°54' W 079°57'3 4.9
2017-Sep-16 08:55N 32°52' W 079°57'3 6.3
2017-Sep-16 08:31N 32°50' W 079°56'2 0.1
2017-Sep-15 10:16N 32°47' W 079°55'1 5.0
2017-Sep-15 10:00N 32°47' W 079°54'612.7
2017-Sep-15 09:31N 32°43' W 079°48'814.1
2017-Sep-15 08:56N 32°40' W 079°39'4 8.5
2017-Sep-15 08:30N 32°39' W 079°35'4 8.1
2017-Sep-15 08:00N 32°39' W 079°30'612.0
2017-Sep-15 07:30N 32°41' W 079°23'712.7
2017-Sep-15 06:59N 32°44' W 079°16'612.8
2017-Sep-15 06:30N 32°47' W 079°10'612.8
2017-Sep-15 06:00N 32°49' W 079°03'712.9
2017-Sep-15 05:28N 32°52' W 078°55'812.9
2017-Sep-15 04:48N 32°56' W 078°46'413.0
2017-Sep-15 04:30N 32°58' W 078°42'713.0
2017-Sep-15 04:00N 33°01' W 078°35'613.0
2017-Sep-15 03:30N 33°03' W 078°28'15312.6
2017-Sep-14 15:19N 34°33' W 075°59'1012.4
2017-Sep-14 14:29N 34°40' W 075°49'3213.2
2017-Sep-14 12:05N 35°01' W 075°20'215.7
2017-Sep-14 11:58N 35°03' W 075°19'715.1
2017-Sep-14 11:30N 35°07' W 075°12'912.7
2017-Sep-14 10:48N 35°16' W 075°10'412.6
2017-Sep-14 10:29N 35°20' W 075°10'612.7
2017-Sep-14 09:59N 35°26' W 075°10'2813.5
2017-Sep-14 07:56N 35°54' W 075°10'613.4
2017-Sep-14 07:30N 35°59' W 075°13'4113.1
2017-Sep-14 04:24N 36°35' W 075°37'512.9
2017-Sep-14 04:00N 36°39' W 075°40'612.8
2017-Sep-14 03:30N 36°45' W 075°44'912.8
2017-Sep-14 02:49N 36°51' W 075°51'413.5
2017-Sep-14 02:30N 36°54' W 075°55'612.2
2017-Sep-14 02:00N 36°59' W 076°00'1116.8
2017-Sep-14 01:20N 37°08' W 076°08'1615.7
2017-Sep-14 00:18N 37°24' W 076°05'814.9
2017-Sep-13 23:45N 37°32' W 076°02'414.8
2017-Sep-13 23:31N 37°35' W 076°04'815.6
2017-Sep-13 22:58N 37°42' W 076°11'915.3
2017-Sep-13 22:24N 37°51' W 076°10'614.9
2017-Sep-13 21:59N 37°57' W 076°12'815.9
2017-Sep-13 21:28N 38°05' W 076°13'715.5
2017-Sep-13 21:00N 38°12' W 076°15'1216.0
2017-Sep-13 20:14N 38°23' W 076°21'516.3
2017-Sep-13 19:55N 38°28' W 076°23'716.0
2017-Sep-13 19:29N 38°35' W 076°26'816.0
2017-Sep-13 19:00N 38°42' W 076°26'816.2
2017-Sep-13 18:31N 38°50' W 076°24'815.9
2017-Sep-13 18:01N 38°58' W 076°23'713.7
2017-Sep-13 17:30N 39°05' W 076°24'612.0
2017-Sep-13 17:00N 39°11' W 076°26'510.1
2017-Sep-13 16:30N 39°13' W 076°32'3 5.5
2017-Sep-13 16:00N 39°15' W 076°35'0 0.0
2017-Sep-13 15:30N 39°15' W 076°35'0 0.0
2017-Sep-13 15:00N 39°15' W 076°35'0 0.0
2017-Sep-13 14:30N 39°15' W 076°35'0 0.0
2017-Sep-13 14:00N 39°15' W 076°35'0 0.0
2017-Sep-13 13:30N 39°15' W 076°35'0 0.0
2017-Sep-13 13:00N 39°15' W 076°35'0 0.0
2017-Sep-13 12:31N 39°15' W 076°35'0 0.0
2017-Sep-13 12:00N 39°15' W 076°35'0 0.0
2017-Sep-13 11:31N 39°15' W 076°35'0 0.0
2017-Sep-13 11:01N 39°15' W 076°35'0 0.0
2017-Sep-13 10:30N 39°15' W 076°35'0 0.0
2017-Sep-13 10:00N 39°15' W 076°35'0 0.0
2017-Sep-13 09:30N 39°15' W 076°35'0 0.0
2017-Sep-13 09:00N 39°15' W 076°35'0 0.0
2017-Sep-13 08:31N 39°15' W 076°35'0 0.0
2017-Sep-13 08:00N 39°15' W 076°35'0 0.0
2017-Sep-13 07:31N 39°15' W 076°35'0 0.0
2017-Sep-13 07:00N 39°15' W 076°35'0 0.0
2017-Sep-13 06:30N 39°15' W 076°35'0 0.0
2017-Sep-13 06:01N 39°15' W 076°35'0 0.0
2017-Sep-13 05:30N 39°15' W 076°35'0 0.0
2017-Sep-13 05:00N 39°15' W 076°35'0 0.0
2017-Sep-13 04:31N 39°15' W 076°35'0 0.0
2017-Sep-13 04:00N 39°15' W 076°35'0 0.0
2017-Sep-13 03:30N 39°15' W 076°35'0 0.0
2017-Sep-13 03:00N 39°15' W 076°35'0 0.0
2017-Sep-13 02:30N 39°15' W 076°35'0 0.0
2017-Sep-13 02:00N 39°15' W 076°35'0 0.0
2017-Sep-13 01:31N 39°15' W 076°35'0 0.0
2017-Sep-13 01:01N 39°15' W 076°35'0 0.0
2017-Sep-13 00:30N 39°15' W 076°35'0 0.0
2017-Sep-13 00:00N 39°15' W 076°35'0 0.0
2017-Sep-12 23:30N 39°15' W 076°35'0 0.9
2017-Sep-12 23:00N 39°15' W 076°34'2 3.4
2017-Sep-12 22:30N 39°15' W 076°32'0 0.0
2017-Sep-12 22:00N 39°15' W 076°32'0 0.0
2017-Sep-12 21:28N 39°15' W 076°32'0 0.0
2017-Sep-12 20:58N 39°15' W 076°32'0 0.0
2017-Sep-12 20:30N 39°15' W 076°32'0 0.0
2017-Sep-12 20:00N 39°15' W 076°32'0 0.0
2017-Sep-12 19:30N 39°15' W 076°32'0 0.0
2017-Sep-12 18:59N 39°15' W 076°32'0 0.0
2017-Sep-12 18:29N 39°15' W 076°32'0 0.0
2017-Sep-12 17:59N 39°15' W 076°32'0 0.0
2017-Sep-12 17:29N 39°15' W 076°32'0 0.0
2017-Sep-12 16:58N 39°15' W 076°32'0 0.0
2017-Sep-12 16:28N 39°15' W 076°32'0 0.0
2017-Sep-12 15:58N 39°15' W 076°32'0 0.0
2017-Sep-12 15:30N 39°15' W 076°32'0 0.0
2017-Sep-12 15:00N 39°15' W 076°32'0 0.0
2017-Sep-12 14:30N 39°15' W 076°32'0 0.0
2017-Sep-12 13:59N 39°15' W 076°32'0 0.0
2017-Sep-12 13:29N 39°15' W 076°32'0 0.0
2017-Sep-12 12:58N 39°15' W 076°32'0 0.0
2017-Sep-12 12:28N 39°15' W 076°32'0 0.0
2017-Sep-12 11:58N 39°15' W 076°32'0 0.0
2017-Sep-12 11:30N 39°15' W 076°32'0 0.0
2017-Sep-12 11:00N 39°15' W 076°32'0 0.0
2017-Sep-12 10:30N 39°15' W 076°32'0 0.0
2017-Sep-12 10:00N 39°15' W 076°32'0 0.0
2017-Sep-12 09:29N 39°15' W 076°32'0 0.0
2017-Sep-12 09:00N 39°15' W 076°32'0 0.0
2017-Sep-12 08:30N 39°15' W 076°32'0 0.0
2017-Sep-12 08:00N 39°15' W 076°32'0 0.0
2017-Sep-12 07:31N 39°15' W 076°32'0 0.0
2017-Sep-12 07:00N 39°15' W 076°32'0 0.0
2017-Sep-12 06:30N 39°15' W 076°32'0 0.0
2017-Sep-12 06:00N 39°15' W 076°32'0 0.0
2017-Sep-12 05:30N 39°15' W 076°32'0 0.0
2017-Sep-12 05:00N 39°15' W 076°32'0 0.0
2017-Sep-12 04:30N 39°15' W 076°32'0 0.0
2017-Sep-12 04:00N 39°15' W 076°32'0 0.0
2017-Sep-12 03:30N 39°15' W 076°32'0 0.0
2017-Sep-12 03:00N 39°15' W 076°32'0 0.0
2017-Sep-12 02:30N 39°15' W 076°32'0 0.0
2017-Sep-12 02:00N 39°15' W 076°32'0 0.0
2017-Sep-12 01:30N 39°15' W 076°32'0 0.0
2017-Sep-12 01:00N 39°15' W 076°32'0 0.0
2017-Sep-12 00:30N 39°15' W 076°32'0 0.0
2017-Sep-12 00:00N 39°15' W 076°32'0 0.0
2017-Sep-11 23:30N 39°15' W 076°32'0 0.0
2017-Sep-11 23:00N 39°15' W 076°32'0 0.0
2017-Sep-11 22:30N 39°15' W 076°32'0 0.0
2017-Sep-11 22:00N 39°15' W 076°32'0 0.3
2017-Sep-11 21:30N 39°14' W 076°32'2 4.6
2017-Sep-11 21:00N 39°12' W 076°31'611.6
2017-Sep-11 20:30N 39°09' W 076°25'714.1
2017-Sep-11 20:01N 39°02' W 076°23'714.1
2017-Sep-11 19:30N 38°55' W 076°23'815.8
2017-Sep-11 19:00N 38°47' W 076°25'3515.5
2017-Sep-11 16:44N 38°13' W 076°15'516.2
2017-Sep-11 16:26N 38°08' W 076°14'916.3
2017-Sep-11 15:53N 37°59' W 076°12'616.0
2017-Sep-11 15:30N 37°54' W 076°09'815.6
2017-Sep-11 15:00N 37°46' W 076°11'914.9
2017-Sep-11 14:21N 37°37' W 076°06'814.3
2017-Sep-11 13:47N 37°29' W 076°03'2314.0
2017-Sep-11 12:09N 37°07' W 076°08'315.1
2017-Sep-11 11:58N 37°04' W 076°06'714.2
2017-Sep-11 11:30N 36°59' W 076°01'612.1
2017-Sep-11 11:00N 36°55' W 075°55'510.3
2017-Sep-11 10:30N 36°52' W 075°50'  

Dump ship's entire track history